Time;durP1;ratioP1;P1;durP2;ratioP2;P2;SDS_P1;SDS_P2;PMS_P1;PMS_P2;Temp;Humidity;BMP_temperature;BMP_pressure;BME280_temperature;BME280_humidity;BME280_pressure;Samples;Min_cycle;Max_cycle;Signal;HPM_P1;HPM_P2
2021/12/27 00:00:10;;;;;;;2.10;1.50;;;18.00;41.20;;;;;;3854061;22;20055;-86
2021/12/27 00:01:43;;;;;;;1.92;1.15;;;18.00;41.10;;;;;;3857019;23;20025;-86
2021/12/27 00:03:14;;;;;;;3.03;1.75;;;18.10;41.10;;;;;;3855851;23;20020;-86
2021/12/27 00:04:46;;;;;;;2.03;1.50;;;18.10;41.10;;;;;;3855693;23;20507;-86
2021/12/27 00:06:16;;;;;;;2.05;1.50;;;18.00;41.10;;;;;;3856572;23;20447;-86
2021/12/27 00:07:50;;;;;;;2.00;1.70;;;18.10;41.10;;;;;;3855583;23;20067;-86
2021/12/27 00:09:22;;;;;;;1.92;1.50;;;18.00;41.10;;;;;;3856804;23;20030;-86
2021/12/27 00:10:54;;;;;;;2.05;1.60;;;18.00;41.10;;;;;;3856093;23;20071;-85
2021/12/27 00:12:25;;;;;;;1.70;1.38;;;18.00;41.10;;;;;;3856045;23;20020;-85
2021/12/27 00:13:57;;;;;;;1.70;1.48;;;18.00;41.10;;;;;;3856464;23;20125;-86
2021/12/27 00:15:29;;;;;;;2.28;1.60;;;18.00;41.10;;;;;;3854656;23;20518;-86
2021/12/27 00:17:02;;;;;;;1.63;1.38;;;18.00;41.20;;;;;;3856637;23;20021;-86
2021/12/27 00:18:35;;;;;;;2.42;1.75;;;18.00;41.20;;;;;;3855745;23;20063;-86
2021/12/27 00:20:07;;;;;;;1.98;1.60;;;18.00;41.10;;;;;;3856144;23;20074;-85
2021/12/27 00:21:39;;;;;;;2.22;1.75;;;18.00;41.00;;;;;;3856348;23;20021;-86
2021/12/27 00:23:10;;;;;;;1.88;1.55;;;18.00;41.10;;;;;;3855534;23;20059;-86
2021/12/27 00:24:46;;;;;;;2.08;1.50;;;18.00;41.00;;;;;;3855826;23;20016;-86
2021/12/27 00:26:18;;;;;;;1.60;1.33;;;18.00;41.10;;;;;;3856100;23;20024;-85
2021/12/27 00:27:49;;;;;;;1.95;1.58;;;18.00;41.10;;;;;;3855362;23;20020;-86
2021/12/27 00:29:21;;;;;;;1.60;1.48;;;18.00;41.10;;;;;;3855629;23;20438;-86
2021/12/27 00:30:53;;;;;;;1.85;1.45;;;18.00;41.10;;;;;;3854598;23;20485;-86
2021/12/27 00:32:26;;;;;;;2.10;1.48;;;18.00;41.00;;;;;;3856649;23;20020;-86
2021/12/27 00:33:58;;;;;;;1.80;1.58;;;18.00;41.00;;;;;;3855008;23;20025;-86
2021/12/27 00:35:32;;;;;;;2.30;1.70;;;18.00;41.00;;;;;;3855908;23;20095;-86
2021/12/27 00:37:04;;;;;;;2.05;1.60;;;18.00;41.10;;;;;;3855735;23;20100;-86
2021/12/27 00:38:36;;;;;;;2.30;1.67;;;18.00;41.00;;;;;;3855989;23;20021;-86
2021/12/27 00:40:09;;;;;;;2.95;1.67;;;18.00;41.00;;;;;;3855303;23;20464;-86
2021/12/27 00:41:41;;;;;;;2.05;1.75;;;18.00;41.00;;;;;;3856305;23;20021;-85
2021/12/27 00:43:13;;;;;;;2.35;1.73;;;18.00;41.00;;;;;;3855612;23;20071;-86
2021/12/27 00:44:45;;;;;;;2.33;1.70;;;18.00;41.00;;;;;;3855063;23;20077;-86
2021/12/27 00:46:16;;;;;;;1.90;1.70;;;18.00;41.00;;;;;;3855796;23;20025;-87
2021/12/27 00:47:50;;;;;;;2.60;1.85;;;18.00;41.00;;;;;;3855507;23;20119;-85
2021/12/27 00:49:22;;;;;;;3.13;1.90;;;18.00;41.00;;;;;;3856584;23;20071;-84
2021/12/27 00:50:55;;;;;;;1.85;1.50;;;18.00;41.00;;;;;;3855427;23;20386;-86
2021/12/27 00:52:27;;;;;;;2.60;1.80;;;17.90;41.00;;;;;;3855758;23;20075;-87
2021/12/27 00:53:59;;;;;;;1.98;1.60;;;18.00;41.10;;;;;;3855822;23;20071;-87
2021/12/27 00:55:31;;;;;;;2.40;1.70;;;18.00;41.00;;;;;;3855446;23;20024;-86
2021/12/27 00:57:03;;;;;;;2.10;1.70;;;18.00;41.00;;;;;;3855826;23;20016;-85
2021/12/27 00:58:34;;;;;;;2.53;1.63;;;18.00;41.10;;;;;;3856243;23;20020;-86
2021/12/27 01:00:06;;;;;;;3.80;1.90;;;18.00;41.00;;;;;;3853415;23;20047;-86
2021/12/27 01:01:38;;;;;;;2.38;1.90;;;18.00;41.00;;;;;;3856464;23;20032;-84
2021/12/27 01:03:11;;;;;;;2.92;1.90;;;18.00;41.00;;;;;;3855847;23;20074;-86
2021/12/27 01:04:43;;;;;;;2.47;1.67;;;18.00;41.00;;;;;;3856011;23;20043;-86
2021/12/27 01:06:15;;;;;;;2.47;1.80;;;18.00;41.00;;;;;;3855752;23;20020;-86
2021/12/27 01:07:47;;;;;;;2.38;1.75;;;18.00;41.00;;;;;;3856197;23;20020;-86
2021/12/27 01:09:30;;;;;;;2.50;1.80;;;18.00;41.00;;;;;;3856345;23;20103;-85
2021/12/27 01:11:12;;;;;;;2.67;1.80;;;18.00;41.00;;;;;;3854740;23;20039;-85
2021/12/27 01:13:02;;;;;;;2.83;1.95;;;18.00;41.00;;;;;;3855757;23;20023;-85
2021/12/27 01:14:41;;;;;;;2.25;1.85;;;18.00;41.00;;;;;;3856110;23;20016;-85
2021/12/27 01:16:14;;;;;;;2.42;1.90;;;18.00;40.90;;;;;;3854061;23;20063;-86
2021/12/27 01:17:47;;;;;;;2.33;1.80;;;18.00;41.00;;;;;;3855972;23;20016;-86
2021/12/27 01:19:20;;;;;;;2.67;2.03;;;18.00;41.00;;;;;;3856206;23;20029;-86
2021/12/27 01:20:52;;;;;;;2.90;2.10;;;18.00;41.00;;;;;;3854621;22;20076;-87
2021/12/27 01:22:24;;;;;;;2.53;1.90;;;17.90;41.00;;;;;;3856122;23;20396;-86
2021/12/27 01:23:56;;;;;;;2.08;1.77;;;18.00;41.00;;;;;;3855814;23;20024;-85
2021/12/27 01:25:28;;;;;;;3.17;2.17;;;18.00;41.00;;;;;;3856051;22;20040;-85
2021/12/27 01:27:02;;;;;;;2.53;1.70;;;17.90;41.00;;;;;;3855191;23;20017;-86
2021/12/27 01:28:34;;;;;;;3.00;2.13;;;18.00;41.10;;;;;;3856287;23;20017;-86
2021/12/27 01:30:07;;;;;;;2.45;1.90;;;17.90;41.00;;;;;;3855361;22;20048;-85
2021/12/27 01:31:39;;;;;;;2.35;1.98;;;18.00;41.00;;;;;;3855777;23;20017;-87
2021/12/27 01:33:10;;;;;;;2.72;1.90;;;18.00;41.00;;;;;;3855889;23;20024;-87
2021/12/27 01:34:43;;;;;;;2.88;2.03;;;18.00;41.00;;;;;;3854991;22;20052;-86
2021/12/27 01:36:15;;;;;;;2.85;1.98;;;18.00;41.00;;;;;;3856689;23;20021;-88
2021/12/27 01:37:46;;;;;;;2.47;1.90;;;18.00;41.00;;;;;;3855313;23;20375;-86
2021/12/27 01:39:18;;;;;;;2.50;1.80;;;18.00;41.00;;;;;;3856900;23;20302;-87
2021/12/27 01:40:52;;;;;;;2.80;2.00;;;18.00;41.00;;;;;;3856508;22;20020;-86
2021/12/27 01:42:24;;;;;;;3.05;2.20;;;18.00;40.90;;;;;;3855788;23;20267;-86
2021/12/27 01:43:56;;;;;;;2.80;1.85;;;18.00;40.90;;;;;;3856901;23;20027;-86
2021/12/27 01:45:27;;;;;;;2.75;2.00;;;18.00;40.90;;;;;;3855233;22;20020;-86
2021/12/27 01:46:59;;;;;;;3.47;2.22;;;18.00;40.90;;;;;;3857110;23;20400;-86
2021/12/27 01:48:33;;;;;;;2.60;1.98;;;18.00;40.90;;;;;;3856481;23;20418;-86
2021/12/27 01:50:07;;;;;;;3.88;2.08;;;18.00;40.90;;;;;;3856366;23;20396;-86
2021/12/27 01:51:40;;;;;;;2.55;2.03;;;18.00;40.90;;;;;;3857504;23;20070;-86
2021/12/27 01:53:12;;;;;;;3.75;2.25;;;17.90;40.90;;;;;;3855981;23;20352;-87
2021/12/27 01:54:44;;;;;;;2.38;1.70;;;17.90;40.80;;;;;;3856771;23;20456;-86
2021/12/27 01:56:17;;;;;;;2.72;2.10;;;17.90;40.90;;;;;;3857233;23;20024;-86
2021/12/27 01:57:48;;;;;;;2.80;2.05;;;18.00;40.90;;;;;;3856117;23;20017;-86
2021/12/27 01:59:20;;;;;;;2.63;1.90;;;18.00;40.90;;;;;;3861623;23;20447;-86
2021/12/27 02:00:53;;;;;;;3.53;2.53;;;17.90;40.80;;;;;;3859120;23;20078;-86
2021/12/27 02:02:24;;;;;;;;;;;17.90;40.90;;;;;;3861473;23;20020;-87
2021/12/27 02:03:56;;;;;;;2.78;2.10;;;17.90;40.90;;;;;;3859333;23;19922;-86
2021/12/27 02:05:30;;;;;;;3.97;2.58;;;17.90;40.90;;;;;;3860904;23;20479;-85
2021/12/27 02:07:02;;;;;;;2.97;2.10;;;17.90;41.00;;;;;;3860473;23;20027;-86
2021/12/27 02:08:35;;;;;;;2.60;2.00;;;17.90;41.00;;;;;;3861144;23;20023;-85
2021/12/27 02:10:07;;;;;;;;;;;17.90;40.90;;;;;;3860326;23;20051;-86
2021/12/27 02:11:39;;;;;;;3.85;2.42;;;17.90;41.00;;;;;;3861134;23;19915;-86
2021/12/27 02:13:11;;;;;;;2.50;1.88;;;17.90;41.00;;;;;;3859174;23;20023;-86
2021/12/27 02:14:42;;;;;;;3.10;2.25;;;17.90;41.00;;;;;;3860089;23;20020;-86
2021/12/27 02:16:16;;;;;;;3.97;2.38;;;17.90;41.00;;;;;;3860563;23;20029;-86
2021/12/27 02:17:48;;;;;;;3.17;2.20;;;17.90;41.00;;;;;;3860158;23;20016;-86
2021/12/27 02:19:20;;;;;;;3.20;2.10;;;17.90;41.00;;;;;;3860580;23;20070;-87
2021/12/27 02:20:53;;;;;;;3.20;2.33;;;17.90;40.90;;;;;;3860021;23;20083;-86
2021/12/27 02:22:25;;;;;;;2.75;2.10;;;17.90;40.90;;;;;;3860705;23;20243;-86
2021/12/27 02:23:59;;;;;;;2.22;1.88;;;17.90;40.90;;;;;;3860101;23;20025;-85
2021/12/27 02:25:31;;;;;;;2.92;2.00;;;17.90;41.00;;;;;;3861163;23;20047;-86
2021/12/27 02:27:03;;;;;;;2.90;2.17;;;17.90;40.90;;;;;;3860486;23;20054;-86
2021/12/27 02:28:36;;;;;;;4.28;2.33;;;17.90;40.90;;;;;;3861131;23;20067;-86
2021/12/27 02:30:08;;;;;;;;;;;17.90;41.50;;;;;;3859242;23;20028;-85
2021/12/27 02:31:41;;;;;;;2.70;1.90;;;17.90;40.90;;;;;;3861521;23;19912;-86
2021/12/27 02:33:13;;;;;;;2.88;2.50;;;17.90;40.90;;;;;;3859891;23;20429;-86
2021/12/27 02:34:45;;;;;;;3.35;2.33;;;17.90;40.90;;;;;;3859788;23;20378;-86
2021/12/27 02:36:19;;;;;;;3.40;2.35;;;17.90;40.90;;;;;;3860801;23;20047;-85
2021/12/27 02:37:51;;;;;;;2.72;2.10;;;17.90;40.90;;;;;;3860903;23;20059;-86
2021/12/27 02:39:24;;;;;;;3.22;2.38;;;17.90;40.90;;;;;;3860548;23;20621;-86
2021/12/27 02:40:56;;;;;;;;;;;17.90;40.80;;;;;;3860221;23;20559;-86
2021/12/27 02:42:27;;;;;;;3.35;2.40;;;17.90;40.90;;;;;;3860934;23;19915;-85
2021/12/27 02:43:59;;;;;;;3.28;2.33;;;17.90;41.00;;;;;;3860558;23;20021;-86
2021/12/27 02:45:32;;;;;;;3.10;2.25;;;17.90;41.00;;;;;;3859024;23;20055;-86
2021/12/27 02:47:04;;;;;;;3.22;2.22;;;17.90;40.90;;;;;;3860348;23;20020;-85
2021/12/27 02:48:38;;;;;;;3.15;2.45;;;17.90;40.90;;;;;;3860192;23;20028;-86
2021/12/27 02:50:10;;;;;;;3.33;2.42;;;17.90;40.90;;;;;;3859355;23;20025;-84
2021/12/27 02:51:43;;;;;;;2.97;2.60;;;17.90;40.90;;;;;;3860253;23;20028;-86
2021/12/27 02:53:15;;;;;;;2.70;2.20;;;17.90;40.80;;;;;;3860159;23;20021;-85
2021/12/27 02:54:47;;;;;;;3.80;2.60;;;17.90;40.80;;;;;;3860200;22;20071;-85
2021/12/27 02:56:19;;;;;;;3.47;2.25;;;17.90;40.90;;;;;;3859938;23;20029;-86
2021/12/27 02:57:53;;;;;;;3.58;2.30;;;17.90;40.80;;;;;;3861439;23;20093;-85
2021/12/27 02:59:24;;;;;;;3.65;2.33;;;17.90;40.80;;;;;;3860469;23;20024;-86
2021/12/27 03:00:58;;;;;;;3.58;2.65;;;17.90;40.90;;;;;;3859675;22;20071;-86
2021/12/27 03:02:30;;;;;;;3.30;2.40;;;17.90;40.80;;;;;;3860062;23;20020;-86
2021/12/27 03:04:02;;;;;;;3.58;2.55;;;17.90;40.80;;;;;;3860751;23;20107;-87
2021/12/27 03:05:34;;;;;;;3.80;2.70;;;17.90;40.70;;;;;;3860846;23;20028;-85
2021/12/27 03:07:07;;;;;;;3.95;2.55;;;17.90;40.80;;;;;;3859852;23;20033;-86
2021/12/27 03:08:40;;;;;;;3.75;2.38;;;17.90;40.70;;;;;;3862007;23;20150;-85
2021/12/27 03:10:13;;;;;;;3.15;2.40;;;17.90;40.70;;;;;;3859471;22;20025;-86
2021/12/27 03:11:45;;;;;;;3.97;2.40;;;17.90;40.80;;;;;;3860991;23;20020;-86
2021/12/27 03:13:17;;;;;;;3.33;2.33;;;17.90;40.70;;;;;;3858558;23;20023;-89
2021/12/27 03:14:48;;;;;;;3.58;2.58;;;17.90;40.90;;;;;;3856529;22;20028;-86
2021/12/27 03:16:24;;;;;;;3.75;2.40;;;17.90;40.90;;;;;;3860046;23;20024;-86
2021/12/27 03:17:56;;;;;;;4.18;2.85;;;17.90;40.90;;;;;;3860484;23;20096;-86
2021/12/27 03:19:27;;;;;;;3.25;2.50;;;17.90;40.90;;;;;;3861567;23;20017;-86
2021/12/27 03:20:59;;;;;;;3.90;2.80;;;17.90;40.80;;;;;;3860477;22;20075;-86
2021/12/27 03:22:32;;;;;;;3.72;2.80;;;17.90;40.80;;;;;;3860369;23;20047;-86
2021/12/27 03:24:05;;;;;;;4.40;2.42;;;17.90;40.80;;;;;;3859800;23;20024;-86
2021/12/27 03:25:36;;;;;;;3.30;2.50;;;17.90;40.90;;;;;;3859357;22;20059;-85
2021/12/27 03:27:08;;;;;;;4.28;2.88;;;17.90;40.90;;;;;;3859918;23;20335;-85
2021/12/27 03:28:39;;;;;;;4.07;3.03;;;17.90;40.90;;;;;;3860434;23;20043;-85
2021/12/27 03:30:14;;;;;;;3.70;2.58;;;17.90;40.80;;;;;;3858738;22;20075;-87
2021/12/27 03:31:45;;;;;;;4.25;2.85;;;17.90;40.80;;;;;;3861008;23;20027;-86
2021/12/27 03:33:21;;;;;;;3.22;2.35;;;17.90;40.80;;;;;;3858665;23;20020;-86
2021/12/27 03:34:56;;;;;;;3.17;2.47;;;17.90;40.80;;;;;;3860710;22;20044;-85
2021/12/27 03:36:28;;;;;;;3.35;2.30;;;17.90;40.80;;;;;;3861974;23;20025;-85
2021/12/27 03:38:02;;;;;;;3.88;2.60;;;17.90;40.90;;;;;;3859126;23;20099;-86
2021/12/27 03:39:33;;;;;;;4.63;2.70;;;17.90;40.90;;;;;;3861341;23;20048;-85
2021/12/27 03:41:07;;;;;;;4.40;2.70;;;17.90;40.80;;;;;;3859274;22;20024;-86
2021/12/27 03:42:39;;;;;;;4.38;2.60;;;17.90;40.70;;;;;;3860883;23;20048;-86
2021/12/27 03:44:11;;;;;;;4.00;2.85;;;17.90;40.70;;;;;;3860459;23;20486;-86
2021/12/27 03:45:43;;;;;;;3.90;2.80;;;17.90;40.80;;;;;;3859193;22;20020;-86
2021/12/27 03:47:17;;;;;;;3.75;2.83;;;17.90;40.80;;;;;;3861315;23;20044;-86
2021/12/27 03:48:49;;;;;;;3.83;2.47;;;17.90;40.80;;;;;;3859862;23;20042;-86
2021/12/27 03:50:20;;;;;;;4.05;2.72;;;17.90;40.70;;;;;;3860537;22;20029;-85
2021/12/27 03:51:52;;;;;;;3.40;2.65;;;17.90;40.70;;;;;;3860199;23;20394;-86
2021/12/27 03:53:26;;;;;;;4.82;2.80;;;17.90;40.70;;;;;;3859618;23;20058;-86
2021/12/27 03:54:58;;;;;;;4.75;3.03;;;17.90;40.70;;;;;;3861444;22;20020;-85
2021/12/27 03:56:30;;;;;;;5.13;2.92;;;17.90;40.70;;;;;;3860773;23;20025;-86
2021/12/27 03:58:07;;;;;;;3.97;2.63;;;17.90;40.70;;;;;;3859359;23;20016;-86
2021/12/27 03:59:52;;;;;;;4.57;3.08;;;17.90;40.70;;;;;;3859918;23;20071;-85
2021/12/27 04:01:26;;;;;;;4.00;2.85;;;17.90;40.80;;;;;;3858531;23;20024;-85
2021/12/27 04:02:57;;;;;;;3.95;2.83;;;17.90;40.80;;;;;;3858824;23;20028;-86
2021/12/27 04:04:29;;;;;;;4.05;2.85;;;17.90;40.90;;;;;;3859762;23;20387;-86
2021/12/27 04:06:01;;;;;;;4.28;2.85;;;17.90;40.80;;;;;;3859340;22;20464;-85
2021/12/27 04:07:34;;;;;;;4.15;2.97;;;17.90;40.80;;;;;;3860752;23;20043;-86
2021/12/27 04:09:08;;;;;;;3.70;2.78;;;17.90;40.80;;;;;;3860063;23;20020;-86
2021/12/27 04:10:40;;;;;;;4.15;3.08;;;17.90;40.80;;;;;;3859623;22;20420;-86
2021/12/27 04:12:12;;;;;;;3.95;2.85;;;17.80;40.70;;;;;;3860080;23;20020;-85
2021/12/27 04:13:44;;;;;;;4.13;3.20;;;17.90;40.90;;;;;;3859152;23;20028;-85
2021/12/27 04:15:15;;;;;;;3.97;2.80;;;17.80;40.80;;;;;;3858579;22;20104;-85
2021/12/27 04:16:47;;;;;;;4.55;2.88;;;17.90;40.70;;;;;;3860252;23;20020;-86
2021/12/27 04:18:19;;;;;;;4.07;3.00;;;17.90;40.80;;;;;;3859468;23;20012;-86
2021/12/27 04:19:51;;;;;;;4.30;2.92;;;17.90;40.70;;;;;;3859561;22;20067;-85
2021/12/27 04:21:22;;;;;;;4.38;2.90;;;17.90;40.80;;;;;;3859861;23;20459;-86
2021/12/27 04:22:54;;;;;;;4.40;3.03;;;17.90;40.90;;;;;;3859326;23;20044;-85
2021/12/27 04:24:27;;;;;;;4.85;3.30;;;17.90;40.90;;;;;;3859437;23;20017;-86
2021/12/27 04:25:59;;;;;;;4.43;3.10;;;17.80;40.80;;;;;;3859951;22;20024;-86
2021/12/27 04:27:30;;;;;;;4.72;3.13;;;17.80;40.80;;;;;;3859624;23;20017;-86
2021/12/27 04:29:02;;;;;;;4.50;2.85;;;17.90;40.90;;;;;;3860334;23;20071;-85
2021/12/27 04:30:34;;;;;;;4.60;3.10;;;17.90;40.90;;;;;;3858236;22;20025;-87
2021/12/27 04:32:06;;;;;;;5.32;3.00;;;17.80;40.80;;;;;;3860232;23;20031;-86
2021/12/27 04:33:38;;;;;;;4.15;3.15;;;17.90;40.90;;;;;;3858422;23;20076;-86
2021/12/27 04:35:11;;;;;;;4.45;2.95;;;17.90;40.90;;;;;;3859351;22;20078;-86
2021/12/27 04:36:42;;;;;;;3.92;2.97;;;17.90;40.90;;;;;;3859862;23;20497;-85
2021/12/27 04:38:14;;;;;;;4.53;3.10;;;17.90;40.90;;;;;;3860165;23;20024;-86
2021/12/27 04:39:47;;;;;;;4.05;3.00;;;17.90;40.80;;;;;;3859021;22;20027;-86
2021/12/27 04:41:21;;;;;;;3.97;2.80;;;17.90;40.80;;;;;;3860004;23;20025;-86
2021/12/27 04:42:55;;;;;;;4.60;2.92;;;17.90;40.80;;;;;;3859741;23;20448;-86
2021/12/27 04:44:27;;;;;;;4.40;3.05;;;17.90;40.90;;;;;;3859120;23;20016;-85
2021/12/27 04:45:58;;;;;;;4.43;3.20;;;17.80;40.80;;;;;;3858074;22;20047;-86
2021/12/27 04:47:29;;;;;;;4.25;3.28;;;17.80;40.80;;;;;;3859038;23;20048;-86
2021/12/27 04:49:01;;;;;;;4.03;2.85;;;17.80;40.80;;;;;;3860129;23;20395;-85
2021/12/27 04:50:33;;;;;;;3.63;2.80;;;17.90;40.90;;;;;;3859628;23;20091;-85
2021/12/27 04:52:05;;;;;;;4.60;3.20;;;17.80;40.90;;;;;;3859738;23;20678;-86
2021/12/27 04:53:37;;;;;;;5.50;3.35;;;17.80;40.90;;;;;;3859589;23;20021;-86
2021/12/27 04:55:10;;;;;;;3.92;2.95;;;17.80;40.90;;;;;;3855494;22;20025;-88
2021/12/27 04:56:42;;;;;;;4.95;3.13;;;17.90;40.80;;;;;;3855518;23;20032;-87
2021/12/27 04:58:16;;;;;;;3.80;2.97;;;17.80;40.80;;;;;;3855373;23;20083;-86
2021/12/27 11:00:57;;;;;;;8.13;4.90;;;17.80;41.10;;;;;;3874137;22;20488;-87
2021/12/27 11:02:33;;;;;;;7.10;4.72;;;17.70;41.00;;;;;;3899342;22;20069;-87
2021/12/27 11:04:05;;;;;;;6.63;4.45;;;17.80;41.10;;;;;;3898706;22;20042;-87
2021/12/27 11:05:37;;;;;;;7.03;4.53;;;17.70;41.00;;;;;;3898790;22;20023;-87
2021/12/27 11:07:09;;;;;;;7.07;5.05;;;17.80;41.00;;;;;;3899182;22;20498;-87
2021/12/27 11:08:47;;;;;;;7.25;4.82;;;17.80;41.10;;;;;;3900070;22;20027;-89
2021/12/27 11:10:20;;;;;;;7.75;5.25;;;17.80;41.00;;;;;;3896913;22;20035;-86
2021/12/27 11:11:52;;;;;;;6.90;4.47;;;17.80;40.90;;;;;;3899526;22;20034;-85
2021/12/27 11:13:24;;;;;;;7.68;4.80;;;17.80;41.00;;;;;;3899583;22;20594;-86
2021/12/27 11:14:56;;;;;;;6.63;4.70;;;17.80;41.60;;;;;;3898701;22;20026;-86
2021/12/27 11:16:29;;;;;;;6.43;4.60;;;17.80;41.00;;;;;;3898890;22;20050;-87
2021/12/27 11:18:01;;;;;;;7.28;5.00;;;17.80;41.00;;;;;;3897954;22;20049;-86
2021/12/27 11:19:33;;;;;;;7.82;4.40;;;17.80;41.00;;;;;;3900170;22;20019;-86
2021/12/27 11:21:09;;;;;;;8.05;4.93;;;17.80;41.00;;;;;;3898630;22;20076;-87
2021/12/27 11:22:44;;;;;;;7.82;5.05;;;17.80;41.00;;;;;;3899583;22;20481;-86
2021/12/27 11:24:16;;;;;;;6.97;4.93;;;17.80;40.90;;;;;;3899190;22;20050;-85
2021/12/27 11:25:48;;;;;;;6.90;4.82;;;17.80;41.60;;;;;;3893135;22;20019;-89
2021/12/27 11:27:19;;;;;;;7.05;4.80;;;17.80;40.90;;;;;;3894214;22;20022;-89
2021/12/27 11:28:52;;;;;;;7.32;4.95;;;17.80;40.90;;;;;;3894231;22;20031;-88
2021/12/27 11:30:25;;;;;;;7.60;5.10;;;17.80;40.90;;;;;;3891932;22;20098;-88
2021/12/27 11:32:15;;;;;;;7.80;4.90;;;17.80;41.00;;;;;;3893836;22;20022;-88
2021/12/27 11:33:56;;;;;;;8.77;5.07;;;17.80;41.00;;;;;;3892731;22;20035;-88
2021/12/27 11:35:31;;;;;;;8.20;5.15;;;17.80;41.00;;;;;;3893454;22;20103;-88
2021/12/27 11:37:10;;;;;;;6.90;5.00;;;17.80;41.00;;;;;;3893985;22;20113;-89
2021/12/27 11:38:43;;;;;;;7.72;5.10;;;17.80;41.00;;;;;;3893425;22;20488;-89
2021/12/27 11:40:16;;;;;;;7.68;5.05;;;17.80;41.00;;;;;;3893242;22;20019;-89
2021/12/27 11:41:58;;;;;;;7.43;5.13;;;17.80;40.90;;;;;;3894127;22;20020;-88
2021/12/27 11:43:48;;;;;;;7.32;4.88;;;17.80;40.90;;;;;;3892977;22;20015;-89
2021/12/27 11:45:36;;;;;;;8.27;5.15;;;17.80;40.90;;;;;;3892252;22;20027;-89
2021/12/27 11:47:09;;;;;;;7.15;4.95;;;17.80;40.90;;;;;;3869423;22;20340;-89
2021/12/27 11:48:46;;;;;;;8.57;5.38;;;17.80;41.00;;;;;;3893180;22;20019;-89
2021/12/27 11:50:17;;;;;;;6.93;5.03;;;17.80;41.00;;;;;;3893229;22;20020;-88
2021/12/27 11:51:53;;;;;;;8.07;5.15;;;17.80;41.00;;;;;;3893780;22;20020;-88
2021/12/27 11:53:28;;;;;;;7.95;5.10;;;17.80;40.90;;;;;;3892443;22;20027;-88
2021/12/27 11:55:01;;;;;;;6.70;4.80;;;17.80;40.90;;;;;;3892702;22;20094;-89
2021/12/27 11:56:42;;;;;;;;;;;17.80;41.00;;;;;;3894184;22;20365;-90
2021/12/27 11:58:28;;;;;;;8.07;4.82;;;17.90;41.00;;;;;;3894036;22;20323;-89
2021/12/27 12:00:00;;;;;;;8.13;5.00;;;17.80;41.00;;;;;;3892766;22;20446;-89
2021/12/27 12:01:38;;;;;;;7.60;5.40;;;17.80;41.00;;;;;;3892647;22;20031;-89
2021/12/27 12:03:12;;;;;;;7.55;5.22;;;17.80;41.00;;;;;;3892821;22;20024;-88
2021/12/27 12:04:47;;;;;;;7.47;4.95;;;17.80;41.00;;;;;;3892653;22;20049;-88
2021/12/27 12:06:39;;;;;;;7.35;4.88;;;17.80;41.00;;;;;;3893771;22;20405;-89
2021/12/27 12:08:11;;;;;;;7.00;4.55;;;17.90;41.00;;;;;;3893371;22;20019;-88
2021/12/27 12:09:47;;;;;;;8.10;4.97;;;17.80;41.00;;;;;;3892495;22;20018;-89
2021/12/27 12:11:19;;;;;;;8.88;5.15;;;17.90;41.00;;;;;;3893509;22;20470;-88
2021/12/27 12:13:24;;;;;;;7.60;5.22;;;17.80;41.00;;;;;;3891328;22;20081;-88
2021/12/27 12:14:57;;;;;;;7.18;5.00;;;17.80;41.00;;;;;;3871148;22;20445;-89
2021/12/27 12:16:30;;;;;;;7.18;5.28;;;17.80;41.00;;;;;;3892482;22;20024;-89
2021/12/27 12:18:15;;;;;;;6.90;5.35;;;17.80;41.10;;;;;;3892848;22;20035;-89
2021/12/27 12:19:50;;;;;;;6.72;5.10;;;17.80;41.00;;;;;;3892991;22;20070;-88
2021/12/27 12:21:39;;;;;;;8.00;5.65;;;17.80;40.90;;;;;;3893705;22;20028;-88
2021/12/27 12:23:11;;;;;;;8.05;5.18;;;17.90;41.00;;;;;;3892916;22;20405;-89
2021/12/27 12:24:43;;;;;;;7.70;4.97;;;17.90;41.00;;;;;;3892672;22;20023;-89
2021/12/27 12:26:15;;;;;;;8.65;5.22;;;17.80;41.00;;;;;;3893176;22;20015;-90
2021/12/27 12:27:54;;;;;;;8.52;5.60;;;17.80;41.00;;;;;;3893535;22;20019;-89
2021/12/27 12:29:27;;;;;;;7.93;5.22;;;17.90;41.10;;;;;;3893504;22;20073;-88
2021/12/27 12:30:59;;;;;;;7.15;5.05;;;17.90;41.10;;;;;;3891124;22;20443;-89
2021/12/27 12:32:31;;;;;;;8.00;5.45;;;17.80;41.10;;;;;;3893591;22;20442;-88
2021/12/27 12:34:10;;;;;;;7.53;5.32;;;17.90;41.70;;;;;;3892458;22;20076;-88
2021/12/27 12:35:44;;;;;;;8.40;5.30;;;17.90;41.00;;;;;;3892940;22;20331;-88
2021/12/27 12:37:25;;;;;;;8.27;5.55;;;17.90;41.00;;;;;;3893501;22;20015;-89
2021/12/27 12:38:58;;;;;;;7.22;5.00;;;17.90;41.00;;;;;;3893676;22;20407;-89
2021/12/27 12:40:30;;;;;;;6.85;4.72;;;17.90;41.00;;;;;;3892350;22;20032;-88
2021/12/27 12:42:05;;;;;;;7.47;5.55;;;17.90;41.10;;;;;;3893000;22;20019;-89
2021/12/27 12:43:42;;;;;;;8.27;5.43;;;17.90;41.10;;;;;;3892695;22;20035;-90
2021/12/27 12:45:14;;;;;;;8.57;5.40;;;17.90;41.10;;;;;;3891280;22;20020;-88
2021/12/27 12:46:49;;;;;;;7.88;5.30;;;17.90;41.00;;;;;;3892804;22;20045;-89
2021/12/27 12:48:27;;;;;;;8.68;5.20;;;17.90;40.90;;;;;;3893291;22;20035;-89
2021/12/27 12:49:59;;;;;;;7.80;5.38;;;17.90;41.00;;;;;;3892526;22;20020;-88
2021/12/27 12:51:38;;;;;;;7.85;5.07;;;17.80;41.00;;;;;;3893098;22;20488;-89
2021/12/27 12:53:11;;;;;;;8.23;5.53;;;17.90;41.10;;;;;;3892576;22;20068;-88
2021/12/27 12:54:44;;;;;;;7.47;4.97;;;17.80;41.00;;;;;;3893044;22;20070;-89
2021/12/27 12:56:16;;;;;;;8.88;5.72;;;17.90;41.00;;;;;;3893443;22;20020;-88
2021/12/27 12:57:48;;;;;;;8.90;5.35;;;17.90;41.00;;;;;;3893317;22;20065;-89
2021/12/27 12:59:20;;;;;;;7.22;4.90;;;17.90;41.00;;;;;;3893603;22;20478;-86
2021/12/27 13:00:53;;;;;;;8.82;5.40;;;17.90;41.00;;;;;;3891373;22;20068;-89
2021/12/27 13:02:28;;;;;;;8.63;5.65;;;17.90;41.10;;;;;;3892920;22;20477;-89
2021/12/27 13:04:01;;;;;;;8.75;5.72;;;17.90;40.90;;;;;;3891770;22;20020;-88
2021/12/27 13:05:33;;;;;;;7.78;5.22;;;17.90;41.00;;;;;;3892904;22;20042;-89
2021/12/27 13:07:06;;;;;;;8.70;5.65;;;17.90;41.00;;;;;;3893309;22;20015;-89
2021/12/27 13:08:38;;;;;;;8.35;5.28;;;17.90;41.00;;;;;;3893500;22;20020;-88
2021/12/27 13:10:11;;;;;;;8.35;5.32;;;17.90;41.00;;;;;;3893053;22;20023;-89
2021/12/27 13:11:43;;;;;;;9.00;5.53;;;17.90;41.00;;;;;;3893035;22;20046;-88
2021/12/27 13:13:18;;;;;;;7.75;5.18;;;17.90;41.00;;;;;;3892262;22;20020;-90
2021/12/27 13:14:50;;;;;;;8.32;5.75;;;17.90;41.00;;;;;;3892815;22;20090;-88
2021/12/27 13:16:26;;;;;;;7.78;5.30;;;17.90;41.00;;;;;;3892501;22;20024;-88
2021/12/27 13:18:03;;;;;;;8.70;5.55;;;17.90;41.00;;;;;;3892649;22;20020;-89
2021/12/27 13:19:34;;;;;;;8.02;5.47;;;17.90;41.00;;;;;;3893415;22;20450;-89
2021/12/27 13:21:07;;;;;;;7.90;5.28;;;17.90;41.20;;;;;;3892227;22;20024;-89
2021/12/27 13:22:41;;;;;;;7.85;5.35;;;17.90;41.10;;;;;;3893033;22;20023;-89
2021/12/27 13:24:13;;;;;;;8.82;5.65;;;17.90;41.00;;;;;;3892315;22;20027;-88
2021/12/27 13:25:44;;;;;;;9.07;5.75;;;17.90;41.00;;;;;;3892428;22;20023;-89
2021/12/27 13:27:27;;;;;;;7.63;5.90;;;17.90;41.00;;;;;;3892896;22;20020;-88
2021/12/27 13:29:00;;;;;;;7.85;5.40;;;17.90;41.00;;;;;;3892677;22;20019;-88
2021/12/27 13:30:32;;;;;;;7.90;5.65;;;17.90;41.10;;;;;;3891482;22;20068;-88
2021/12/27 13:32:04;;;;;;;7.50;5.35;;;17.90;41.00;;;;;;3893211;22;20020;-89
2021/12/27 13:33:42;;;;;;;7.30;5.07;;;17.90;41.00;;;;;;3892278;22;20020;-89
2021/12/27 13:35:14;;;;;;;8.65;5.50;;;17.90;40.90;;;;;;3894600;22;20397;-89
2021/12/27 13:36:46;;;;;;;7.78;5.75;;;17.90;40.90;;;;;;3895614;22;20027;-89
2021/12/27 13:38:21;;;;;;;7.80;5.60;;;17.90;40.80;;;;;;3895248;22;20081;-88
2021/12/27 13:40:04;;;;;;;8.02;5.38;;;17.90;40.90;;;;;;3894619;22;20523;-90
2021/12/27 13:41:37;;;;;;;7.90;5.50;;;17.90;40.90;;;;;;3895534;22;20020;-88
2021/12/27 13:43:09;;;;;;;;;;;17.90;41.60;;;;;;3895099;22;20019;-88
2021/12/27 13:44:40;;;;;;;8.13;5.82;;;17.90;41.00;;;;;;3894947;22;19915;-89
2021/12/27 13:46:13;;;;;;;8.60;5.25;;;17.90;41.10;;;;;;3893504;22;20525;-90
2021/12/27 13:47:51;;;;;;;7.57;5.40;;;17.90;41.00;;;;;;3896125;22;20019;-89
2021/12/27 13:49:23;;;;;;;8.57;5.45;;;17.90;41.00;;;;;;3895089;22;20028;-89
2021/12/27 13:50:55;;;;;;;8.87;5.27;;;17.90;41.10;;;;;;3895305;22;20020;-89
2021/12/27 13:52:27;;;;;;;7.77;5.03;;;17.90;41.00;;;;;;3895453;22;20258;-89
2021/12/27 13:54:01;;;;;;;8.70;5.60;;;17.90;41.00;;;;;;3894410;22;20019;-89
2021/12/27 13:55:33;;;;;;;8.13;5.32;;;17.90;41.00;;;;;;3894209;22;20019;-88
2021/12/27 13:57:05;;;;;;;8.52;5.65;;;17.90;41.00;;;;;;3895371;22;20064;-89
2021/12/27 13:58:41;;;;;;;9.05;5.72;;;17.90;41.00;;;;;;3895125;22;20061;-89
2021/12/27 14:00:15;;;;;;;9.25;5.95;;;17.90;41.00;;;;;;3893231;22;20016;-89
2021/12/27 14:01:55;;;;;;;8.50;5.88;;;17.90;41.00;;;;;;3895236;22;20024;-89
2021/12/27 14:03:30;;;;;;;8.90;5.82;;;17.90;40.90;;;;;;3894288;22;20081;-89
2021/12/27 14:05:02;;;;;;;8.93;5.43;;;18.00;41.00;;;;;;3894709;22;20024;-89
2021/12/27 14:06:40;;;;;;;8.20;5.47;;;17.90;40.90;;;;;;3895048;22;20023;-89
2021/12/27 14:08:12;;;;;;;8.30;5.68;;;17.90;40.90;;;;;;3894964;22;20980;-88